createdAt,value
2019-03-09T00:00:14.289Z,67.675781
2019-03-09T00:01:23.810Z,67.675781
2019-03-09T00:02:33.330Z,67.340088
2019-03-09T00:03:42.836Z,67.437744
2019-03-09T00:04:52.341Z,67.437744
2019-03-09T00:06:01.872Z,67.437744
2019-03-09T00:07:11.389Z,67.541504
2019-03-09T00:08:20.901Z,67.437744
2019-03-09T00:09:30.422Z,67.541504
2019-03-09T00:10:39.925Z,67.437744
2019-03-09T00:11:49.446Z,67.541504
2019-03-09T00:12:58.969Z,67.340088
2019-03-09T00:14:08.473Z,67.437744
2019-03-09T00:15:17.984Z,67.340088
2019-03-09T00:16:27.499Z,67.340088
2019-03-09T00:17:36.995Z,67.132568
2019-03-09T00:18:46.509Z,67.028809
2019-03-09T00:19:56.021Z,67.028809
2019-03-09T00:21:05.530Z,67.028809
2019-03-09T00:22:15.050Z,66.925049
2019-03-09T00:23:24.565Z,66.717529
2019-03-09T00:24:34.077Z,66.717529
2019-03-09T00:25:43.589Z,66.61377
2019-03-09T00:26:53.123Z,66.61377
2019-03-09T00:28:02.636Z,66.821289
2019-03-09T00:29:12.143Z,66.61377
2019-03-09T00:30:21.654Z,66.61377
2019-03-09T00:31:31.153Z,66.821289
2019-03-09T00:32:40.674Z,66.821289
2019-03-09T00:33:50.184Z,66.821289
2019-03-09T00:34:59.688Z,67.028809
2019-03-09T00:36:09.197Z,66.821289
2019-03-09T00:37:18.725Z,66.925049
2019-03-09T00:38:28.235Z,66.925049
2019-03-09T00:39:37.810Z,66.61377
2019-03-09T00:40:47.380Z,66.61377
2019-03-09T00:41:56.997Z,66.51001
2019-03-09T00:43:06.650Z,66.61377
2019-03-09T00:44:16.208Z,66.61377
2019-03-09T00:45:25.763Z,66.61377
2019-03-09T00:46:35.301Z,66.30249
2019-03-09T00:47:44.865Z,66.30249
2019-03-09T00:48:54.371Z,66.19873
2019-03-09T00:50:03.910Z,66.30249
2019-03-09T00:51:13.500Z,66.40625
2019-03-09T00:52:23.129Z,66.51001
2019-03-09T00:53:32.699Z,66.644287
2019-03-09T00:54:42.264Z,66.644287
2019-03-09T00:55:51.820Z,66.851807
2019-03-09T00:57:01.435Z,66.748047
2019-03-09T00:58:11.016Z,66.748047
2019-03-09T00:59:20.602Z,66.748047
2019-03-09T01:00:30.207Z,66.955566
2019-03-09T01:01:39.783Z,66.955566
2019-03-09T01:02:51.025Z,67.059326
2019-03-09T01:03:58.793Z,67.266846
2019-03-09T01:05:08.295Z,67.504883
2019-03-09T01:06:17.815Z,67.504883
2019-03-09T01:07:27.338Z,67.401123
2019-03-09T01:08:36.887Z,67.401123
2019-03-09T01:09:46.507Z,67.401123
2019-03-09T01:10:56.113Z,67.401123
2019-03-09T01:12:05.710Z,67.504883
2019-03-09T01:13:15.332Z,67.401123
2019-03-09T01:14:24.885Z,67.504883
2019-03-09T01:15:34.403Z,67.504883
2019-03-09T01:16:43.915Z,67.504883
2019-03-09T01:17:53.450Z,67.913818
2019-03-09T01:19:02.956Z,67.913818
2019-03-09T01:20:12.465Z,67.84668
2019-03-09T01:21:21.973Z,67.84668
2019-03-09T01:22:31.502Z,67.84668
2019-03-09T01:23:41.005Z,68.151855
2019-03-09T01:24:50.517Z,68.054199
2019-03-09T01:26:00.022Z,68.151855
2019-03-09T01:27:09.535Z,68.151855
2019-03-09T01:28:19.063Z,68.151855
2019-03-09T01:29:28.573Z,68.255615
2019-03-09T01:30:38.079Z,68.566895
2019-03-09T01:31:47.591Z,68.908691
2019-03-09T01:32:57.111Z,69.219971
2019-03-09T01:34:06.617Z,69.219971
2019-03-09T01:35:16.119Z,69.32373
2019-03-09T01:36:25.633Z,69.53125
2019-03-09T01:37:35.144Z,69.42749
2019-03-09T01:38:44.663Z,69.42749
2019-03-09T01:39:54.159Z,69.769287
2019-03-09T01:41:03.671Z,69.665527
2019-03-09T01:42:13.183Z,69.769287
2019-03-09T01:43:22.707Z,69.769287
2019-03-09T01:44:32.223Z,69.769287
2019-03-09T01:45:41.719Z,69.769287
2019-03-09T01:46:51.228Z,69.73877
2019-03-09T01:48:00.745Z,69.842529
2019-03-09T01:49:10.254Z,69.73877
2019-03-09T01:50:19.765Z,69.63501
2019-03-09T01:51:29.283Z,69.42749
2019-03-09T01:52:38.808Z,69.42749
2019-03-09T01:53:48.310Z,69.42749
2019-03-09T01:54:57.804Z,69.42749
2019-03-09T01:56:07.309Z,69.32373
2019-03-09T01:57:16.817Z,69.42749
2019-03-09T01:58:26.337Z,69.53125
2019-03-09T01:59:35.854Z,69.53125
2019-03-09T02:00:45.358Z,69.53125
2019-03-09T02:01:54.875Z,69.42749
2019-03-09T02:03:04.389Z,69.42749
2019-03-09T02:04:13.900Z,69.32373
2019-03-09T02:05:23.414Z,69.42749
2019-03-09T02:06:32.917Z,69.63501
2019-03-09T02:07:42.431Z,69.73877
2019-03-09T02:08:51.995Z,69.73877
2019-03-09T02:10:01.533Z,69.63501
2019-03-09T02:11:11.024Z,69.63501
2019-03-09T02:12:20.531Z,69.73877
2019-03-09T02:13:30.054Z,69.73877
2019-03-09T02:14:39.563Z,69.63501
2019-03-09T02:15:49.080Z,69.73877
2019-03-09T02:16:58.590Z,69.63501
2019-03-09T02:18:08.114Z,69.500732
2019-03-09T02:19:17.622Z,69.63501
2019-03-09T02:20:27.129Z,69.63501
2019-03-09T02:21:36.639Z,69.500732
2019-03-09T02:22:46.145Z,69.500732
2019-03-09T02:23:55.689Z,69.396973
2019-03-09T02:25:05.196Z,69.293213
2019-03-09T02:26:14.720Z,69.293213
2019-03-09T02:27:24.218Z,69.293213
2019-03-09T02:28:33.742Z,68.774414
2019-03-09T02:29:43.253Z,68.878174
2019-03-09T02:30:52.768Z,68.743896
2019-03-09T02:32:02.278Z,68.743896
2019-03-09T02:33:11.793Z,68.847656
2019-03-09T02:34:21.303Z,68.640137
2019-03-09T02:35:30.813Z,69.085693
2019-03-09T02:36:40.336Z,68.981934
2019-03-09T02:37:49.835Z,69.085693
2019-03-09T02:38:59.356Z,68.878174
2019-03-09T02:40:08.861Z,68.981934
2019-03-09T02:41:18.366Z,68.878174
2019-03-09T02:42:27.873Z,68.774414
2019-03-09T02:43:37.393Z,68.774414
2019-03-09T02:44:46.903Z,69.085693
2019-03-09T02:45:56.408Z,69.189453
2019-03-09T02:47:05.921Z,69.708252
2019-03-09T02:48:15.444Z,69.946289
2019-03-09T02:49:24.937Z,69.946289
2019-03-09T02:50:34.465Z,70.153809
2019-03-09T02:51:44.000Z,69.842529
2019-03-09T02:52:53.502Z,69.604492
2019-03-09T02:54:03.038Z,69.262695
2019-03-09T02:55:12.527Z,69.158936
2019-03-09T02:56:22.041Z,69.158936
2019-03-09T02:57:31.574Z,69.226074
2019-03-09T02:58:41.103Z,69.433594
2019-03-09T02:59:50.647Z,69.433594
2019-03-09T03:01:00.151Z,69.329834
2019-03-09T03:02:09.642Z,68.817139
2019-03-09T03:03:19.186Z,68.4021
2019-03-09T03:04:28.805Z,68.19458
2019-03-09T03:05:38.370Z,68.164062
2019-03-09T03:06:47.876Z,67.956543
2019-03-09T03:07:57.386Z,67.749023
2019-03-09T03:09:06.928Z,67.645264
2019-03-09T03:10:16.409Z,67.852783
2019-03-09T03:11:25.929Z,68.09082
2019-03-09T03:12:35.435Z,67.987061
2019-03-09T03:13:44.977Z,68.19458
2019-03-09T03:14:54.473Z,67.987061
2019-03-09T03:16:03.993Z,67.883301
2019-03-09T03:17:13.548Z,67.883301
2019-03-09T03:18:23.048Z,67.987061
2019-03-09T03:19:32.569Z,68.19458
2019-03-09T03:20:42.077Z,68.09082
2019-03-09T03:21:51.665Z,68.19458
2019-03-09T03:23:01.179Z,68.09082
2019-03-09T03:24:10.686Z,68.817139
2019-03-09T03:25:20.210Z,69.329834
2019-03-09T03:26:29.715Z,69.329834
2019-03-09T03:27:39.226Z,70.159912
2019-03-09T03:28:48.761Z,70.263672
2019-03-09T03:29:58.257Z,71.844482
2019-03-09T03:31:07.770Z,71.740723
2019-03-09T03:32:17.269Z,72.979736
2019-03-09T03:33:26.775Z,72.363281
2019-03-09T03:34:36.303Z,73.083496
2019-03-09T03:35:45.803Z,72.259521
2019-03-09T03:36:55.311Z,73.187256
2019-03-09T03:38:04.833Z,73.187256
2019-03-09T03:39:14.345Z,73.944092
2019-03-09T03:40:23.850Z,73.327637
2019-03-09T03:41:33.352Z,73.394775
2019-03-09T03:42:42.845Z,72.467041
2019-03-09T03:43:52.356Z,72.570801
2019-03-09T03:45:01.904Z,72.77832
2019-03-09T03:46:11.402Z,72.570801
2019-03-09T03:47:20.898Z,72.363281
2019-03-09T03:48:30.406Z,72.77832
2019-03-09T03:49:39.927Z,72.637939
2019-03-09T03:50:49.433Z,73.260498
2019-03-09T03:51:58.936Z,73.773193
2019-03-09T03:53:08.537Z,75.671387
2019-03-09T03:54:18.992Z,74.841309
2019-03-09T03:55:28.486Z,75.152588
2019-03-09T03:56:37.989Z,75.256348
2019-03-09T03:57:48.507Z,75.048828
2019-03-09T03:58:58.013Z,74.914551
2019-03-09T04:00:07.533Z,74.914551
2019-03-09T04:01:17.049Z,75.219727
2019-03-09T04:02:26.550Z,75.427246
2019-03-09T04:03:36.148Z,75.427246
2019-03-09T04:04:45.595Z,75.531006
2019-03-09T04:05:55.133Z,75.842285
2019-03-09T04:07:04.669Z,74.67041
2019-03-09T04:08:14.178Z,75.189209
2019-03-09T04:09:23.736Z,75.189209
2019-03-09T04:10:33.244Z,75.085449
2019-03-09T04:11:42.756Z,74.530029
2019-03-09T04:12:52.266Z,74.328613
2019-03-09T04:14:01.778Z,74.530029
2019-03-09T04:15:11.293Z,74.530029
2019-03-09T04:16:21.594Z,73.809814
2019-03-09T04:17:31.059Z,74.224854
2019-03-09T04:18:40.550Z,74.633789
2019-03-09T04:19:50.091Z,75.152588
2019-03-09T04:21:01.782Z,75.463867
2019-03-09T04:22:09.106Z,75.152588
2019-03-09T04:23:18.607Z,75.463867
2019-03-09T04:24:28.141Z,74.291992
2019-03-09T04:25:37.662Z,74.707031
2019-03-09T04:26:47.174Z,73.876953
2019-03-09T04:27:56.681Z,73.876953
2019-03-09T04:29:06.189Z,74.291992
2019-03-09T04:30:15.711Z,73.773193
2019-03-09T04:31:25.216Z,74.188232
2019-03-09T04:32:34.727Z,74.395752
2019-03-09T04:33:44.285Z,75.115967
2019-03-09T04:34:53.806Z,75.012207
2019-03-09T04:36:03.308Z,75.842285
2019-03-09T04:37:12.835Z,75.738525
2019-03-09T04:38:22.354Z,75.738525
2019-03-09T04:39:31.871Z,76.35498
2019-03-09T04:40:41.373Z,75.976562
2019-03-09T04:41:50.892Z,75.427246
2019-03-09T04:43:00.397Z,75.115967
2019-03-09T04:44:09.905Z,75.531006
2019-03-09T04:45:19.435Z,75.738525
2019-03-09T04:46:28.941Z,75.946045
2019-03-09T04:47:38.456Z,75.738525
2019-03-09T04:48:47.971Z,76.147461
2019-03-09T04:49:57.497Z,75.427246
2019-03-09T04:51:07.032Z,75.012207
2019-03-09T04:52:16.533Z,75.531006
2019-03-09T04:53:26.037Z,76.043701
2019-03-09T04:54:35.543Z,76.043701
2019-03-09T04:55:45.058Z,75.634766
2019-03-09T04:56:54.564Z,75.219727
2019-03-09T04:58:04.074Z,75.531006
2019-03-09T04:59:13.585Z,76.147461
2019-03-09T05:00:23.120Z,75.531006
2019-03-09T05:01:32.628Z,75.427246
2019-03-09T05:02:42.132Z,75.738525
2019-03-09T05:03:51.641Z,75.634766
2019-03-09T05:05:01.134Z,75.531006
2019-03-09T05:06:10.639Z,75.323486
2019-03-09T05:07:20.146Z,75.634766
2019-03-09T05:08:29.649Z,75.427246
2019-03-09T05:09:39.159Z,74.810791
2019-03-09T05:10:48.683Z,75.531006
2019-03-09T05:11:58.186Z,76.45874
2019-03-09T05:13:07.702Z,76.043701
2019-03-09T05:14:17.205Z,76.5625
2019-03-09T05:15:26.732Z,76.251221
2019-03-09T05:16:36.239Z,75.946045
2019-03-09T05:17:45.746Z,76.35498
2019-03-09T05:18:55.249Z,76.45874
2019-03-09T05:20:04.765Z,76.35498
2019-03-09T05:21:14.263Z,76.66626
2019-03-09T05:22:23.787Z,76.251221
2019-03-09T05:23:33.320Z,75.946045
2019-03-09T05:24:42.829Z,75.012207
2019-03-09T05:25:52.351Z,75.219727
2019-03-09T05:27:01.884Z,75.323486
2019-03-09T05:28:11.370Z,74.810791
2019-03-09T05:29:20.865Z,75.012207
2019-03-09T05:30:30.389Z,75.012207
2019-03-09T05:31:39.901Z,74.908447
2019-03-09T05:32:49.411Z,75.219727
2019-03-09T05:33:58.915Z,75.427246
2019-03-09T05:35:08.433Z,75.427246
2019-03-09T05:36:17.942Z,75.323486
2019-03-09T05:37:27.457Z,75.738525
2019-03-09T05:38:36.963Z,75.323486
2019-03-09T05:39:46.470Z,75.531006
2019-03-09T05:40:55.985Z,75.427246
2019-03-09T05:42:05.498Z,74.908447
2019-03-09T05:43:15.018Z,74.981689
2019-03-09T05:44:24.529Z,75.219727
2019-03-09T05:45:34.055Z,75.427246
2019-03-09T05:46:43.568Z,75.115967
2019-03-09T05:47:53.077Z,75.115967
2019-03-09T05:49:02.585Z,75.115967
2019-03-09T05:50:12.107Z,74.67041
2019-03-09T05:51:21.622Z,74.255371
2019-03-09T05:52:31.152Z,73.742676
2019-03-09T05:53:40.645Z,73.742676
2019-03-09T05:54:50.157Z,73.431396
2019-03-09T05:55:59.685Z,73.535156
2019-03-09T05:57:09.201Z,73.950195
2019-03-09T05:58:18.714Z,73.223877
2019-03-09T05:59:28.222Z,73.223877
2019-03-09T06:00:37.737Z,72.918701
2019-03-09T06:01:47.248Z,72.814941
2019-03-09T06:02:56.769Z,72.265625
2019-03-09T06:04:06.273Z,71.954346
2019-03-09T06:05:15.795Z,71.954346
2019-03-09T06:06:25.333Z,72.369385
2019-03-09T06:07:34.837Z,71.44165
2019-03-09T06:08:44.355Z,71.643066
2019-03-09T06:09:53.857Z,70.275879
2019-03-09T06:11:03.425Z,70.275879
2019-03-09T06:12:12.934Z,70.172119
2019-03-09T06:13:22.446Z,69.86084
2019-03-09T06:14:31.949Z,69.75708
2019-03-09T06:15:41.471Z,69.75708
2019-03-09T06:16:50.988Z,69.65332
2019-03-09T06:18:00.497Z,69.65332
2019-03-09T06:19:10.987Z,69.75708
2019-03-09T06:20:20.572Z,70.581055
2019-03-09T06:21:30.077Z,70.373535
2019-03-09T06:22:39.600Z,70.373535
2019-03-09T06:23:49.105Z,70.068359
2019-03-09T06:24:58.620Z,70.373535
2019-03-09T06:26:08.145Z,69.9646
2019-03-09T06:27:17.661Z,70.788574
2019-03-09T06:28:27.211Z,69.9646
2019-03-09T06:29:36.687Z,69.140625
2019-03-09T06:30:46.210Z,69.006348
2019-03-09T06:31:55.722Z,68.182373
2019-03-09T06:33:05.230Z,67.767334
2019-03-09T06:34:14.744Z,67.358398
2019-03-09T06:35:24.270Z,66.607666
2019-03-09T06:36:33.782Z,66.607666
2019-03-09T06:37:43.288Z,66.088867
2019-03-09T06:38:52.806Z,66.088867
2019-03-09T06:40:02.305Z,66.088867
2019-03-09T06:41:11.835Z,66.400146
2019-03-09T06:42:21.361Z,65.887451
2019-03-09T06:43:30.857Z,65.338135
2019-03-09T06:44:40.372Z,65.234375
2019-03-09T06:45:50.906Z,65.130615
2019-03-09T06:47:00.413Z,64.825439
2019-03-09T06:48:09.921Z,64.61792
2019-03-09T06:49:19.428Z,64.51416
2019-03-09T06:50:28.936Z,64.51416
2019-03-09T06:51:39.459Z,64.51416
2019-03-09T06:52:48.964Z,64.208984
2019-03-09T06:53:58.475Z,64.385986
2019-03-09T06:55:07.984Z,64.074707
2019-03-09T06:56:17.501Z,64.074707
2019-03-09T06:57:27.016Z,63.665771
2019-03-09T06:58:36.530Z,63.562012
2019-03-09T06:59:46.031Z,63.146973
2019-03-09T07:00:55.592Z,63.250732
2019-03-09T07:02:05.125Z,62.915039
2019-03-09T07:03:14.641Z,62.60376
2019-03-09T07:04:24.157Z,62.60376
2019-03-09T07:05:33.664Z,62.402344
2019-03-09T07:06:43.189Z,62.506104
2019-03-09T07:07:52.699Z,62.60376
2019-03-09T07:09:02.216Z,62.506104
2019-03-09T07:10:11.726Z,62.70752
2019-03-09T07:11:21.257Z,63.018799
2019-03-09T07:12:30.758Z,62.811279
2019-03-09T07:13:40.274Z,62.70752
2019-03-09T07:14:50.769Z,62.268066
2019-03-09T07:16:00.304Z,62.164307
2019-03-09T07:17:09.837Z,62.164307
2019-03-09T07:18:19.370Z,62.475586
2019-03-09T07:19:28.862Z,62.506104
2019-03-09T07:20:38.367Z,62.579346
2019-03-09T07:21:47.869Z,62.884521
2019-03-09T07:22:57.366Z,64.044189
2019-03-09T07:24:06.872Z,64.660645
2019-03-09T07:25:16.379Z,65.893555
2019-03-09T07:26:25.904Z,66.821289
2019-03-09T07:27:35.417Z,67.163086
2019-03-09T07:28:44.920Z,69.458008
2019-03-09T07:29:54.436Z,69.354248
2019-03-09T07:31:03.942Z,70.074463
2019-03-09T07:32:13.465Z,73.0896
2019-03-09T07:33:22.968Z,76.00708
2019-03-09T07:34:32.475Z,76.971436
2019-03-09T07:35:41.991Z,76.971436
2019-03-09T07:36:51.514Z,76.556396
2019-03-09T07:38:01.020Z,75.012207
2019-03-09T07:39:10.521Z,77.282715
2019-03-09T07:40:20.030Z,78.039551
2019-03-09T07:41:29.565Z,77.416992
2019-03-09T07:42:39.078Z,75.872803
2019-03-09T07:43:48.580Z,77.416992
2019-03-09T07:44:58.115Z,77.111816
2019-03-09T07:46:07.629Z,78.448486
2019-03-09T07:47:17.173Z,76.696777
2019-03-09T07:48:26.682Z,77.215576
2019-03-09T07:49:36.194Z,78.240967
2019-03-09T07:50:45.715Z,77.520752
2019-03-09T07:51:55.216Z,77.728271
2019-03-09T07:53:04.733Z,78.759766
2019-03-09T07:54:14.242Z,77.935791
2019-03-09T07:55:23.843Z,78.967285
2019-03-09T07:56:33.368Z,77.624512
2019-03-09T07:57:42.902Z,77.111816
2019-03-09T07:58:52.414Z,77.075195
2019-03-09T08:00:01.926Z,76.867676
2019-03-09T08:01:11.435Z,78.240967
2019-03-09T08:02:20.964Z,77.728271
2019-03-09T08:03:30.473Z,77.69165
2019-03-09T08:04:39.989Z,77.075195
2019-03-09T08:05:49.498Z,76.35498
2019-03-09T08:06:59.026Z,77.484131
2019-03-09T08:08:08.550Z,75.732422
2019-03-09T08:09:18.060Z,76.727295
2019-03-09T08:10:27.581Z,77.282715
2019-03-09T08:11:37.090Z,78.515625
2019-03-09T08:12:46.615Z,77.484131
2019-03-09T08:13:56.125Z,78.00293
2019-03-09T08:15:05.642Z,77.380371
2019-03-09T08:16:15.157Z,77.484131
2019-03-09T08:17:24.683Z,77.075195
2019-03-09T08:18:34.204Z,76.422119
2019-03-09T08:19:43.732Z,76.525879
2019-03-09T08:20:53.246Z,76.422119
2019-03-09T08:22:02.804Z,76.11084
2019-03-09T08:23:12.310Z,75.183105
2019-03-09T08:24:21.822Z,73.913574
2019-03-09T08:25:31.369Z,73.608398
2019-03-09T08:26:40.882Z,72.98584
2019-03-09T08:27:50.405Z,73.608398
2019-03-09T08:28:59.933Z,72.88208
2019-03-09T08:30:09.430Z,74.121094
2019-03-09T08:31:18.941Z,73.059082
2019-03-09T08:32:28.540Z,72.338867
2019-03-09T08:33:37.992Z,73.468018
2019-03-09T08:34:47.496Z,71.618652
2019-03-09T08:35:57.019Z,72.027588
2019-03-09T08:37:06.524Z,71.618652
2019-03-09T08:38:16.027Z,71.514893
2019-03-09T08:39:25.545Z,72.027588
2019-03-09T08:40:35.056Z,71.478271
2019-03-09T08:41:44.564Z,71.173096
2019-03-09T08:42:54.112Z,70.556641
2019-03-09T08:44:03.617Z,69.799805
2019-03-09T08:45:13.207Z,69.903564
2019-03-09T08:46:22.789Z,70.214844
2019-03-09T08:47:32.447Z,70.214844
2019-03-09T08:48:42.017Z,69.085693
2019-03-09T08:49:51.513Z,69.049072
2019-03-09T08:51:01.026Z,68.432617
2019-03-09T08:52:10.531Z,68.640137
2019-03-09T08:53:20.054Z,67.919922
2019-03-09T08:54:29.591Z,67.510986
2019-03-09T08:55:39.108Z,67.095947
2019-03-09T08:56:48.732Z,67.712402
2019-03-09T08:57:58.202Z,67.712402
2019-03-09T08:59:07.713Z,66.345215
2019-03-09T09:00:17.225Z,67.06543
2019-03-09T09:01:26.754Z,66.448975
2019-03-09T09:02:36.257Z,65.83252
2019-03-09T09:03:45.772Z,66.522217
2019-03-09T09:04:55.280Z,66.009521
2019-03-09T09:06:04.790Z,65.802002
2019-03-09T09:07:14.304Z,65.905762
2019-03-09T09:08:23.831Z,66.113281
2019-03-09T09:09:33.347Z,66.314697
2019-03-09T09:10:42.849Z,66.009521
2019-03-09T09:11:52.345Z,66.186523
2019-03-09T09:13:01.866Z,65.570068
2019-03-09T09:14:11.404Z,65.704346
2019-03-09T09:15:20.905Z,64.776611
2019-03-09T09:16:30.407Z,65.087891
2019-03-09T09:17:39.936Z,65.057373
2019-03-09T09:18:49.553Z,65.155029
2019-03-09T09:19:59.070Z,64.672852
2019-03-09T09:21:08.593Z,65.057373
2019-03-09T09:22:18.105Z,64.642334
2019-03-09T09:23:27.616Z,64.746094
2019-03-09T09:24:37.118Z,64.129639
2019-03-09T09:25:46.637Z,64.544678
2019-03-09T09:26:56.197Z,64.306641
2019-03-09T09:28:05.745Z,64.031982
2019-03-09T09:29:15.235Z,64.611816
2019-03-09T09:30:24.763Z,64.001465
2019-03-09T09:31:34.283Z,63.897705
2019-03-09T09:32:43.791Z,63.720703
2019-03-09T09:33:53.323Z,63.586426
2019-03-09T09:35:03.818Z,63.28125
2019-03-09T09:36:13.322Z,62.536621
2019-03-09T09:37:22.844Z,62.738037
2019-03-09T09:38:32.386Z,62.945557
2019-03-09T09:39:41.895Z,62.811279
2019-03-09T09:40:51.422Z,62.194824
2019-03-09T09:42:00.933Z,62.097168
2019-03-09T09:43:10.469Z,62.609863
2019-03-09T09:44:19.985Z,61.785889
2019-03-09T09:45:29.509Z,62.402344
2019-03-09T09:46:39.050Z,62.506104
2019-03-09T09:47:48.608Z,62.506104
2019-03-09T09:48:58.131Z,62.097168
2019-03-09T09:50:07.661Z,61.761475
2019-03-09T09:51:17.238Z,61.553955
2019-03-09T09:52:26.774Z,61.322021
2019-03-09T09:53:36.363Z,61.114502
2019-03-09T09:54:45.907Z,60.839844
2019-03-09T09:55:55.424Z,61.248779
2019-03-09T09:57:04.954Z,61.14502
2019-03-09T09:58:14.559Z,61.450195
2019-03-09T09:59:24.091Z,60.9375
2019-03-09T10:00:33.647Z,60.632324
2019-03-09T10:01:43.177Z,60.736084
2019-03-09T10:02:52.706Z,60.424805
2019-03-09T10:04:04.728Z,60.632324
2019-03-09T10:05:12.026Z,60.632324
2019-03-09T10:06:22.472Z,59.991455
2019-03-09T10:07:31.980Z,59.58252
2019-03-09T10:08:41.529Z,59.552002
2019-03-09T10:09:51.049Z,58.94165
2019-03-09T10:11:00.569Z,59.069824
2019-03-09T10:12:10.083Z,58.703613
2019-03-09T10:13:19.614Z,58.166504
2019-03-09T10:14:29.135Z,57.525635
2019-03-09T10:15:39.551Z,57.019043
2019-03-09T10:16:48.265Z,57.092285
2019-03-09T10:17:57.776Z,56.756592
2019-03-09T10:19:07.314Z,56.530762
2019-03-09T10:20:16.841Z,55.712891
2019-03-09T10:21:26.352Z,55.480957
2019-03-09T10:22:35.865Z,55.480957
2019-03-09T10:23:45.389Z,55.511475
2019-03-09T10:24:54.911Z,56.25
2019-03-09T10:26:04.406Z,56.378174
2019-03-09T10:27:13.930Z,56.57959
2019-03-09T10:28:23.505Z,56.072998
2019-03-09T10:29:33.072Z,56.427002
2019-03-09T10:30:42.585Z,56.04248
2019-03-09T10:31:52.110Z,55.841064
2019-03-09T10:33:01.654Z,55.944824
2019-03-09T10:34:11.175Z,55.865479
2019-03-09T10:35:20.692Z,55.969238
2019-03-09T10:36:30.208Z,56.170654
2019-03-09T10:37:39.732Z,56.68335
2019-03-09T10:38:49.262Z,56.378174
2019-03-09T10:39:58.771Z,56.890869
2019-03-09T10:41:08.275Z,56.811523
2019-03-09T10:42:17.776Z,57.324219
2019-03-09T10:43:27.293Z,57.427979
2019-03-09T10:44:36.819Z,57.220459
2019-03-09T10:45:46.357Z,57.397461
2019-03-09T10:46:55.869Z,56.555176
2019-03-09T10:48:05.385Z,56.555176
2019-03-09T10:49:14.903Z,56.57959
2019-03-09T10:50:25.953Z,57.556152
2019-03-09T10:51:33.955Z,58.068848
2019-03-09T10:52:43.473Z,57.629395
2019-03-09T10:53:53.022Z,57.93457
2019-03-09T10:55:02.530Z,57.324219
2019-03-09T10:56:12.036Z,57.836914
2019-03-09T10:57:21.549Z,57.93457
2019-03-09T10:58:31.061Z,57.733154
2019-03-09T10:59:40.587Z,58.477783
2019-03-09T11:00:50.092Z,58.477783
2019-03-09T11:01:59.600Z,57.93457
2019-03-09T11:03:09.100Z,57.93457
2019-03-09T11:04:27.226Z,57.019043
2019-03-09T11:05:29.121Z,57.629395
2019-03-09T11:06:38.638Z,57.324219
2019-03-09T11:07:48.148Z,57.629395
2019-03-09T11:08:57.649Z,58.111572
2019-03-09T11:10:07.232Z,57.525635
2019-03-09T11:11:16.746Z,57.525635
2019-03-09T11:12:26.244Z,57.324219
2019-03-09T11:13:35.757Z,57.659912
2019-03-09T11:14:45.289Z,57.556152
2019-03-09T11:15:54.801Z,58.197021
2019-03-09T11:17:04.315Z,59.118652
2019-03-09T11:18:13.829Z,58.166504
2019-03-09T11:19:23.365Z,57.757568
2019-03-09T11:20:32.886Z,57.629395
2019-03-09T11:21:42.396Z,57.757568
2019-03-09T11:22:51.918Z,58.14209
2019-03-09T11:24:01.430Z,57.629395
2019-03-09T11:25:10.969Z,57.93457
2019-03-09T11:26:20.490Z,57.836914
2019-03-09T11:27:29.998Z,58.166504
2019-03-09T11:28:39.520Z,58.24585
2019-03-09T11:29:49.043Z,58.14209
2019-03-09T11:30:58.579Z,57.629395
2019-03-09T11:32:08.099Z,57.836914
2019-03-09T11:33:17.622Z,57.324219
2019-03-09T11:34:27.134Z,57.525635
2019-03-09T11:35:36.657Z,57.629395
2019-03-09T11:36:46.181Z,57.397461
2019-03-09T11:37:55.700Z,56.68335
2019-03-09T11:39:05.215Z,56.860352
2019-03-09T11:40:14.745Z,56.658936
2019-03-09T11:41:24.253Z,56.427002
2019-03-09T11:42:33.771Z,55.81665
2019-03-09T11:43:43.288Z,56.57959
2019-03-09T11:44:52.818Z,56.68335
2019-03-09T11:46:02.392Z,56.964111
2019-03-09T11:47:11.852Z,56.04248
2019-03-09T11:48:21.370Z,55.737305
2019-03-09T11:49:30.880Z,55.432129
2019-03-09T11:50:40.402Z,55.81665
2019-03-09T11:51:49.916Z,55.432129
2019-03-09T11:52:59.450Z,55.328369
2019-03-09T11:54:08.934Z,55.712891
2019-03-09T11:55:18.448Z,55.175781
2019-03-09T11:56:27.964Z,54.974365
2019-03-09T11:57:37.495Z,54.46167
2019-03-09T11:58:47.005Z,54.669189
2019-03-09T11:59:56.550Z,54.870605
2019-03-09T12:01:06.070Z,54.870605
2019-03-09T12:02:15.584Z,54.56543
2019-03-09T12:03:25.101Z,55.303955
2019-03-09T12:04:34.604Z,55.712891
2019-03-09T12:05:45.120Z,55.407715
2019-03-09T12:06:54.632Z,55.407715
2019-03-09T12:08:04.154Z,55.633545
2019-03-09T12:09:13.670Z,56.04248
2019-03-09T12:10:23.191Z,55.761719
2019-03-09T12:11:32.695Z,56.170654
2019-03-09T12:12:42.216Z,56.274414
2019-03-09T12:13:51.722Z,56.378174
2019-03-09T12:15:01.243Z,56.170654
2019-03-09T12:16:10.742Z,56.274414
2019-03-09T12:17:20.247Z,56.988525
2019-03-09T12:18:29.769Z,56.890869
2019-03-09T12:19:40.284Z,56.890869
2019-03-09T12:20:49.824Z,56.787109
2019-03-09T12:21:59.338Z,56.787109
2019-03-09T12:23:08.851Z,56.481934
2019-03-09T12:24:19.926Z,56.658936
2019-03-09T12:25:27.883Z,56.530762
2019-03-09T12:26:37.394Z,55.511475
2019-03-09T12:27:46.927Z,55.712891
2019-03-09T12:28:56.440Z,55.81665
2019-03-09T12:30:05.972Z,56.14624
2019-03-09T12:31:15.481Z,55.944824
2019-03-09T12:32:25.004Z,56.555176
2019-03-09T12:33:34.532Z,56.35376
2019-03-09T12:34:44.054Z,55.81665
2019-03-09T12:35:53.593Z,55.511475
2019-03-09T12:37:03.104Z,55.511475
2019-03-09T12:38:12.648Z,54.766846
2019-03-09T12:39:22.153Z,54.46167
2019-03-09T12:40:31.671Z,54.333496
2019-03-09T12:41:41.203Z,53.80249
2019-03-09T12:42:50.710Z,54.02832
2019-03-09T12:44:00.225Z,54.437256
2019-03-09T12:45:09.732Z,53.900146
2019-03-09T12:46:19.267Z,53.112793
2019-03-09T12:47:28.773Z,54.052734
2019-03-09T12:48:38.287Z,53.674316
2019-03-09T12:49:47.812Z,51.99585
2019-03-09T12:50:57.366Z,52.880859
2019-03-09T12:52:06.906Z,53.088379
2019-03-09T12:53:16.402Z,53.851318
2019-03-09T12:54:25.920Z,54.052734
2019-03-09T12:55:35.446Z,54.56543
2019-03-09T12:56:44.959Z,54.46167
2019-03-09T12:57:54.463Z,54.260254
2019-03-09T12:59:03.978Z,54.260254
2019-03-09T13:00:13.507Z,54.13208
2019-03-09T13:01:23.081Z,53.088379
2019-03-09T13:02:32.593Z,53.265381
2019-03-09T13:03:42.100Z,52.325439
2019-03-09T13:04:51.647Z,52.960205
2019-03-09T13:06:01.198Z,52.960205
2019-03-09T13:07:10.712Z,53.063965
2019-03-09T13:08:20.217Z,52.325439
2019-03-09T13:09:29.782Z,52.22168
2019-03-09T13:10:39.302Z,52.124023
2019-03-09T13:11:48.815Z,52.856445
2019-03-09T13:12:58.330Z,52.148438
2019-03-09T13:14:07.827Z,52.856445
2019-03-09T13:15:17.331Z,52.960205
2019-03-09T13:16:26.871Z,52.856445
2019-03-09T13:17:36.380Z,52.453613